createdAt,value
2017-02-21T00:00:21.676Z,17.41
2017-02-21T00:01:31.417Z,17.38
2017-02-21T00:02:40.348Z,17.34
2017-02-21T00:03:49.836Z,17.37
2017-02-21T00:04:58.763Z,17.41
2017-02-21T00:06:07.710Z,17.4
2017-02-21T00:07:17.047Z,17.4
2017-02-21T00:08:25.977Z,17.4
2017-02-21T00:09:34.996Z,17.4
2017-02-21T00:10:44.753Z,17.37
2017-02-21T00:11:53.730Z,17.38
2017-02-21T00:13:03.479Z,17.36
2017-02-21T00:14:13.233Z,17.38
2017-02-21T00:15:23.538Z,17.34
2017-02-21T00:16:32.462Z,17.37
2017-02-21T00:17:42.642Z,17.33
2017-02-21T00:18:51.997Z,17.33
2017-02-21T00:20:01.758Z,17.36
2017-02-21T00:21:11.356Z,17.36
2017-02-21T00:22:20.307Z,17.31
2017-02-21T00:23:29.657Z,17.3
2017-02-21T00:24:39.004Z,17.37
2017-02-21T00:25:48.353Z,17.34
2017-02-21T00:26:57.356Z,17.33
2017-02-21T00:28:06.697Z,17.23
2017-02-21T00:29:15.646Z,17.36
2017-02-21T00:30:25.385Z,17.3
2017-02-21T00:31:35.539Z,17.36
2017-02-21T00:32:45.020Z,17.28
2017-02-21T00:33:54.354Z,17.31
2017-02-21T00:35:03.291Z,17.34
2017-02-21T00:36:12.640Z,17.33
2017-02-21T00:37:23.190Z,17.3
2017-02-21T00:38:32.575Z,17.33
2017-02-21T00:39:41.518Z,17.33
2017-02-21T00:40:51.682Z,17.25
2017-02-21T00:42:01.839Z,17.33
2017-02-21T00:43:10.762Z,17.31
2017-02-21T00:44:20.514Z,17.31
2017-02-21T00:45:30.304Z,17.3
2017-02-21T00:46:40.454Z,17.3
2017-02-21T00:47:50.205Z,17.33
2017-02-21T00:48:59.553Z,17.28
2017-02-21T00:50:09.008Z,17.26
2017-02-21T00:51:17.936Z,17.31
2017-02-21T00:52:26.870Z,17.3
2017-02-21T00:53:36.203Z,17.25
2017-02-21T00:54:45.553Z,17.26
2017-02-21T00:55:55.145Z,17.25
2017-02-21T00:57:04.904Z,17.26
2017-02-21T00:58:13.836Z,17.25
2017-02-21T00:59:23.176Z,17.23
2017-02-21T01:00:33.391Z,17.31
2017-02-21T01:01:43.156Z,17.25
2017-02-21T01:02:52.901Z,17.22
2017-02-21T01:04:01.842Z,17.23
2017-02-21T01:05:11.199Z,17.18
2017-02-21T01:06:20.985Z,17.3
2017-02-21T01:07:30.883Z,17.26
2017-02-21T01:08:40.224Z,17.19
2017-02-21T01:09:49.983Z,17.21
2017-02-21T01:11:00.140Z,17.15
2017-02-21T01:12:10.717Z,17.15
2017-02-21T01:13:21.474Z,17.14
2017-02-21T01:14:30.809Z,17.18
2017-02-21T01:15:40.158Z,17.21
2017-02-21T01:16:50.321Z,17.21
2017-02-21T01:17:59.683Z,17.21
2017-02-21T01:19:09.775Z,17.16
2017-02-21T01:20:19.527Z,17.28
2017-02-21T01:21:29.279Z,17.16
2017-02-21T01:22:38.225Z,17.16
2017-02-21T01:23:47.557Z,17.19
2017-02-21T01:24:58.227Z,17.23
2017-02-21T01:26:08.372Z,17.19
2017-02-21T01:27:17.335Z,17.18
2017-02-21T01:28:27.092Z,17.21
2017-02-21T01:29:37.692Z,17.19
2017-02-21T01:30:47.609Z,17.22
2017-02-21T01:31:57.768Z,17.18
2017-02-21T01:33:07.124Z,17.16
2017-02-21T01:34:16.075Z,17.21
2017-02-21T01:35:25.824Z,17.15
2017-02-21T01:36:35.876Z,17.21
2017-02-21T01:37:45.227Z,17.18
2017-02-21T01:38:55.386Z,17.18
2017-02-21T01:40:05.959Z,17.15
2017-02-21T01:41:15.297Z,17.22
2017-02-21T01:42:24.952Z,17.14
2017-02-21T01:43:33.881Z,17.14
2017-02-21T01:44:42.814Z,17.18
2017-02-21T01:45:52.150Z,17.11
2017-02-21T01:47:01.901Z,17.14
2017-02-21T01:48:11.403Z,17.15
2017-02-21T01:49:20.762Z,17.18
2017-02-21T01:50:30.106Z,17.08
2017-02-21T01:51:40.254Z,17.12
2017-02-21T01:52:50.032Z,17.12
2017-02-21T01:53:59.236Z,17.18
2017-02-21T01:55:08.578Z,17.06
2017-02-21T01:56:17.520Z,17.15
2017-02-21T01:57:27.694Z,17.15
2017-02-21T01:58:37.043Z,17.16
2017-02-21T01:59:46.884Z,17.08
2017-02-21T02:00:55.844Z,17.14
2017-02-21T02:02:05.211Z,17.14
2017-02-21T02:03:14.163Z,17.04
2017-02-21T02:04:23.910Z,17.14
2017-02-21T02:05:32.966Z,17.06
2017-02-21T02:06:42.303Z,17.07
2017-02-21T02:07:51.239Z,17.12
2017-02-21T02:09:01.027Z,17.08
2017-02-21T02:10:10.368Z,17.15
2017-02-21T02:11:19.365Z,17.19
2017-02-21T02:12:28.704Z,17.15
2017-02-21T02:13:38.046Z,17.19
2017-02-21T02:14:47.388Z,17.04
2017-02-21T02:15:56.733Z,17.15
2017-02-21T02:17:07.029Z,17.19
2017-02-21T02:18:16.771Z,17.15
2017-02-21T02:19:26.524Z,17.15
2017-02-21T02:20:35.864Z,17.08
2017-02-21T02:21:44.785Z,17.08
2017-02-21T02:22:54.784Z,17.14
2017-02-21T02:24:04.154Z,17.14
2017-02-21T02:25:13.909Z,17.06
2017-02-21T02:26:22.829Z,17.19
2017-02-21T02:27:32.592Z,17.03
2017-02-21T02:28:42.089Z,17.08
2017-02-21T02:29:51.446Z,17.11
2017-02-21T02:31:00.384Z,17.12
2017-02-21T02:32:10.953Z,17.07
2017-02-21T02:33:20.729Z,17.06
2017-02-21T02:34:30.623Z,17.07
2017-02-21T02:35:40.782Z,17.04
2017-02-21T02:36:50.588Z,17.03
2017-02-21T02:38:00.362Z,17.04
2017-02-21T02:39:09.705Z,17.03
2017-02-21T02:40:19.196Z,17.07
2017-02-21T02:41:29.351Z,17.16
2017-02-21T02:42:39.096Z,17.06
2017-02-21T02:43:48.109Z,16.91
2017-02-21T02:44:57.450Z,17.04
2017-02-21T02:46:07.092Z,16.98
2017-02-21T02:47:16.868Z,16.96
2017-02-21T02:48:26.215Z,17.03
2017-02-21T02:49:35.956Z,16.94
2017-02-21T02:50:45.321Z,17.07
2017-02-21T02:51:54.916Z,17
2017-02-21T02:53:04.250Z,17.11
2017-02-21T02:54:14.011Z,17
2017-02-21T02:55:23.768Z,17.03
2017-02-21T02:56:33.510Z,17.04
2017-02-21T02:57:42.996Z,17.03
2017-02-21T02:58:52.331Z,17.01
2017-02-21T03:00:02.478Z,17.04
2017-02-21T03:01:12.240Z,16.98
2017-02-21T03:02:22.007Z,17.04
2017-02-21T03:03:30.985Z,17.07
2017-02-21T03:04:39.933Z,17.04
2017-02-21T03:05:49.704Z,17.03
2017-02-21T03:06:59.460Z,17.01
2017-02-21T03:08:10.029Z,17.04
2017-02-21T03:09:19.512Z,17.03
2017-02-21T03:10:28.452Z,17.08
2017-02-21T03:11:38.197Z,17.03
2017-02-21T03:12:47.554Z,17.01
2017-02-21T03:13:56.914Z,17.03
2017-02-21T03:15:06.298Z,17.07
2017-02-21T03:16:16.040Z,17.01
2017-02-21T03:17:24.991Z,17.08
2017-02-21T03:18:34.747Z,17.01
2017-02-21T03:19:44.488Z,17
2017-02-21T03:20:54.404Z,17.04
2017-02-21T03:22:04.581Z,17.03
2017-02-21T03:23:13.941Z,16.94
2017-02-21T03:24:23.275Z,17.01
2017-02-21T03:25:33.039Z,16.88
2017-02-21T03:26:42.675Z,16.98
2017-02-21T03:27:52.438Z,16.98
2017-02-21T03:29:02.593Z,16.94
2017-02-21T03:30:11.942Z,16.97
2017-02-21T03:31:21.698Z,16.88
2017-02-21T03:32:31.178Z,16.91
2017-02-21T03:33:40.925Z,16.93
2017-02-21T03:34:50.671Z,16.97
2017-02-21T03:36:00.820Z,16.94
2017-02-21T03:37:10.165Z,16.94
2017-02-21T03:38:19.145Z,16.97
2017-02-21T03:39:29.327Z,16.93
2017-02-21T03:40:39.087Z,16.93
2017-02-21T03:41:48.434Z,16.89
2017-02-21T03:42:58.176Z,16.89
2017-02-21T03:44:07.973Z,16.98
2017-02-21T03:45:17.305Z,16.91
2017-02-21T03:46:27.061Z,16.94
2017-02-21T03:47:36.393Z,16.93
2017-02-21T03:48:46.553Z,16.86
2017-02-21T03:49:55.940Z,16.97
2017-02-21T03:51:05.276Z,16.91
2017-02-21T03:52:15.440Z,16.96
2017-02-21T03:53:24.815Z,16.91
2017-02-21T03:54:34.168Z,16.94
2017-02-21T03:55:43.982Z,16.96
2017-02-21T03:56:52.910Z,16.93
2017-02-21T03:58:02.260Z,16.93
2017-02-21T03:59:12.433Z,16.96
2017-02-21T04:00:21.779Z,16.93
2017-02-21T04:01:31.590Z,16.86
2017-02-21T04:02:40.949Z,16.88
2017-02-21T04:03:50.310Z,16.97
2017-02-21T04:05:00.066Z,16.98
2017-02-21T04:06:09.411Z,16.86
2017-02-21T04:07:18.601Z,16.91
2017-02-21T04:08:27.945Z,16.93
2017-02-21T04:09:37.292Z,16.91
2017-02-21T04:10:47.041Z,17.01
2017-02-21T04:11:56.795Z,16.93
2017-02-21T04:13:06.560Z,16.93
2017-02-21T04:14:15.485Z,16.91
2017-02-21T04:15:25.249Z,16.93
2017-02-21T04:16:34.579Z,16.94
2017-02-21T04:17:43.952Z,16.93
2017-02-21T04:18:53.339Z,16.93
2017-02-21T04:20:03.127Z,16.97
2017-02-21T04:21:12.063Z,16.97
2017-02-21T04:22:21.428Z,16.93
2017-02-21T04:23:31.181Z,16.94
2017-02-21T04:24:40.305Z,16.94
2017-02-21T04:25:50.063Z,16.86
2017-02-21T04:26:59.008Z,16.96
2017-02-21T04:28:07.932Z,16.94
2017-02-21T04:29:17.278Z,16.91
2017-02-21T04:30:26.612Z,16.96
2017-02-21T04:31:36.365Z,16.89
2017-02-21T04:32:45.316Z,16.88
2017-02-21T04:33:54.656Z,16.96
2017-02-21T04:35:04.424Z,16.86
2017-02-21T04:36:14.238Z,16.86
2017-02-21T04:37:23.999Z,16.85
2017-02-21T04:38:33.784Z,16.86
2017-02-21T04:39:42.776Z,16.91
2017-02-21T04:40:52.117Z,16.91
2017-02-21T04:42:02.160Z,16.89
2017-02-21T04:43:11.094Z,16.86
2017-02-21T04:44:21.266Z,16.88
2017-02-21T04:45:31.450Z,16.93
2017-02-21T04:46:41.216Z,16.89
2017-02-21T04:47:50.192Z,16.86
2017-02-21T04:48:59.953Z,16.83
2017-02-21T04:50:08.915Z,16.91
2017-02-21T04:51:18.274Z,16.88
2017-02-21T04:52:27.637Z,16.91
2017-02-21T04:53:37.534Z,16.88
2017-02-21T04:54:47.683Z,16.89
2017-02-21T04:55:57.437Z,16.93
2017-02-21T04:57:06.802Z,16.91
2017-02-21T04:58:16.126Z,16.91
2017-02-21T04:59:25.604Z,16.89
2017-02-21T05:00:35.778Z,16.89
2017-02-21T05:01:45.127Z,16.96
2017-02-21T05:02:54.076Z,16.96
2017-02-21T05:04:03.421Z,16.89
2017-02-21T05:05:12.914Z,16.89
2017-02-21T05:06:22.249Z,16.94
2017-02-21T05:07:31.586Z,16.97
2017-02-21T05:08:41.749Z,16.96
2017-02-21T05:09:51.502Z,16.89
2017-02-21T05:11:01.058Z,16.93
2017-02-21T05:12:10.386Z,17.03
2017-02-21T05:13:19.335Z,16.93
2017-02-21T05:14:28.667Z,16.94
2017-02-21T05:15:38.428Z,16.89
2017-02-21T05:16:47.363Z,16.91
2017-02-21T05:17:56.290Z,16.88
2017-02-21T05:19:05.222Z,16.88
2017-02-21T05:20:14.171Z,16.88
2017-02-21T05:21:23.937Z,17
2017-02-21T05:22:34.232Z,16.97
2017-02-21T05:23:43.576Z,16.97
2017-02-21T05:24:53.315Z,16.94
2017-02-21T05:26:03.109Z,16.89
2017-02-21T05:27:12.857Z,16.98
2017-02-21T05:28:23.187Z,17.03
2017-02-21T05:29:32.544Z,16.98
2017-02-21T05:30:42.293Z,16.98
2017-02-21T05:31:51.651Z,17.06
2017-02-21T05:33:01.421Z,17.01
2017-02-21T05:34:10.862Z,18.47
2017-02-21T05:35:20.200Z,19.02
2017-02-21T05:36:30.352Z,19.29
2017-02-21T05:37:40.556Z,19.16
2017-02-21T05:38:49.505Z,18.95
2017-02-21T05:39:58.845Z,18.78
2017-02-21T05:41:08.175Z,18.62
2017-02-21T05:42:17.100Z,18.37
2017-02-21T05:43:26.459Z,18.18
2017-02-21T05:44:35.546Z,18.2
2017-02-21T05:45:45.732Z,18
2017-02-21T05:46:54.672Z,17.87
2017-02-21T05:48:04.015Z,17.81
2017-02-21T05:49:13.773Z,17.71
2017-02-21T05:50:23.185Z,17.72
2017-02-21T05:51:32.130Z,17.59
2017-02-21T05:52:42.291Z,17.58
2017-02-21T05:53:52.036Z,17.19
2017-02-21T05:55:01.398Z,15.69
2017-02-21T05:56:11.295Z,13.81
2017-02-21T05:57:20.222Z,12.23
2017-02-21T05:58:29.579Z,11
2017-02-21T05:59:38.916Z,10.11
2017-02-21T06:00:47.836Z,9.56
2017-02-21T06:01:57.773Z,9.11
2017-02-21T06:03:06.699Z,8.74
2017-02-21T06:04:15.631Z,8.58
2017-02-21T06:05:24.967Z,8.41
2017-02-21T06:06:34.729Z,8.34
2017-02-21T06:07:44.123Z,8.2
2017-02-21T06:08:53.879Z,8.11
2017-02-21T06:10:03.202Z,8.08
2017-02-21T06:11:12.138Z,7.97
2017-02-21T06:12:21.463Z,7.85
2017-02-21T06:13:30.870Z,7.77
2017-02-21T06:14:40.604Z,7.68
2017-02-21T06:15:50.360Z,7.55
2017-02-21T06:16:59.691Z,7.53
2017-02-21T06:18:09.840Z,7.48
2017-02-21T06:19:20.154Z,7.49
2017-02-21T06:20:29.497Z,7.35
2017-02-21T06:21:39.253Z,7.48
2017-02-21T06:22:48.597Z,7.34
2017-02-21T06:23:57.951Z,7.31
2017-02-21T06:25:07.043Z,7.31
2017-02-21T06:26:16.377Z,7.31
2017-02-21T06:27:26.128Z,7.28
2017-02-21T06:28:35.866Z,7.15
2017-02-21T06:29:44.792Z,7.21
2017-02-21T06:30:54.429Z,7.16
2017-02-21T06:32:03.366Z,7.24
2017-02-21T06:33:12.319Z,7.17
2017-02-21T06:34:22.061Z,7.15
2017-02-21T06:35:31.796Z,7.25
2017-02-21T06:36:40.872Z,7.2
2017-02-21T06:37:50.199Z,7.17
2017-02-21T06:38:59.114Z,7.12
2017-02-21T06:40:08.856Z,7.17
2017-02-21T06:41:19.003Z,7.09
2017-02-21T06:42:28.894Z,7.13
2017-02-21T06:43:38.635Z,7.07
2017-02-21T06:44:48.357Z,7.06
2017-02-21T06:45:58.157Z,6.95
2017-02-21T06:47:08.313Z,7.02
2017-02-21T06:48:18.970Z,6.99
2017-02-21T06:49:28.310Z,7.13
2017-02-21T06:50:38.045Z,7.07
2017-02-21T06:51:48.595Z,7.12
2017-02-21T06:52:57.924Z,7.13
2017-02-21T06:54:07.299Z,7.03
2017-02-21T06:55:16.618Z,7.12
2017-02-21T06:56:27.164Z,7.03
2017-02-21T06:57:36.487Z,7.06
2017-02-21T06:58:46.226Z,6.99
2017-02-21T06:59:56.074Z,7.06
2017-02-21T07:01:05.434Z,7.02
2017-02-21T07:02:14.399Z,7.07
2017-02-21T07:03:24.553Z,7.05
2017-02-21T07:04:34.294Z,7.02
2017-02-21T07:05:43.378Z,6.99
2017-02-21T07:06:52.302Z,7.06
2017-02-21T07:08:01.639Z,6.99
2017-02-21T07:09:10.959Z,7.06
2017-02-21T07:10:20.288Z,7.06
2017-02-21T07:11:30.781Z,7.06
2017-02-21T07:12:40.099Z,6.99
2017-02-21T07:13:50.267Z,6.99
2017-02-21T07:14:59.994Z,6.99
2017-02-21T07:16:09.744Z,6.99
2017-02-21T07:17:19.778Z,6.97
2017-02-21T07:18:29.919Z,6.88
2017-02-21T07:19:39.267Z,6.88
2017-02-21T07:20:48.597Z,6.98
2017-02-21T07:21:57.520Z,6.91
2017-02-21T07:23:06.583Z,6.91
2017-02-21T07:24:15.919Z,6.92
2017-02-21T07:25:25.679Z,6.92
2017-02-21T07:26:35.015Z,7.02
2017-02-21T07:27:44.366Z,6.91
2017-02-21T07:28:54.971Z,6.97
2017-02-21T07:30:04.712Z,7.02
2017-02-21T07:31:14.448Z,6.99
2017-02-21T07:32:24.200Z,6.95
2017-02-21T07:33:33.523Z,6.99
2017-02-21T07:34:42.504Z,7.07
2017-02-21T07:35:51.863Z,7.02
2017-02-21T07:37:01.189Z,7.02
2017-02-21T07:38:10.130Z,6.98
2017-02-21T07:39:19.053Z,7.07
2017-02-21T07:40:29.284Z,7.02
2017-02-21T07:41:39.421Z,6.98
2017-02-21T07:42:49.160Z,6.99
2017-02-21T07:43:58.492Z,7.02
2017-02-21T07:45:08.260Z,6.99
2017-02-21T07:46:17.323Z,7.1
2017-02-21T07:47:26.240Z,7.02
2017-02-21T07:48:36.800Z,7.09
2017-02-21T07:49:46.151Z,7.06
2017-02-21T07:50:55.503Z,7.05
2017-02-21T07:52:05.810Z,6.97
2017-02-21T07:53:14.722Z,7.03
2017-02-21T07:54:24.474Z,6.95
2017-02-21T07:55:34.210Z,7.07
2017-02-21T07:56:43.576Z,7.05
2017-02-21T07:57:53.711Z,7.06
2017-02-21T07:59:04.280Z,7.15
2017-02-21T08:00:13.613Z,7.12
2017-02-21T08:01:23.776Z,7.09
2017-02-21T08:02:34.340Z,7.13
2017-02-21T08:03:44.184Z,7.15
2017-02-21T08:04:53.515Z,7.16
2017-02-21T08:06:02.858Z,7.25
2017-02-21T08:07:12.608Z,7.1
2017-02-21T08:08:21.529Z,7.15
2017-02-21T08:09:31.436Z,7.16
2017-02-21T08:10:41.574Z,7.12
2017-02-21T08:11:51.318Z,7.23
2017-02-21T08:13:00.664Z,7.2
2017-02-21T08:14:10.418Z,7.16
2017-02-21T08:15:19.394Z,7.17
2017-02-21T08:16:28.725Z,7.21
2017-02-21T08:17:38.454Z,7.28
2017-02-21T08:18:47.380Z,7.25
2017-02-21T08:19:57.126Z,7.17
2017-02-21T08:21:06.614Z,7.21
2017-02-21T08:22:15.971Z,7.27
2017-02-21T08:23:25.749Z,7.28
2017-02-21T08:24:35.102Z,7.17
2017-02-21T08:25:44.879Z,7.34
2017-02-21T08:26:55.070Z,7.21
2017-02-21T08:28:04.398Z,7.17
2017-02-21T08:29:14.132Z,7.16
2017-02-21T08:30:23.455Z,7.21
2017-02-21T08:31:32.792Z,7.24
2017-02-21T08:32:42.691Z,7.2
2017-02-21T08:33:52.026Z,7.17
2017-02-21T08:35:01.765Z,7.23
2017-02-21T08:36:11.928Z,7.2
2017-02-21T08:37:21.265Z,7.23
2017-02-21T08:38:30.585Z,7.21
2017-02-21T08:39:39.930Z,7.12
2017-02-21T08:40:49.675Z,7.21
2017-02-21T08:41:59.023Z,7.24
2017-02-21T08:43:08.342Z,7.17
2017-02-21T08:44:17.311Z,7.35
2017-02-21T08:45:26.636Z,7.27
2017-02-21T08:46:35.567Z,7.31
2017-02-21T08:47:44.914Z,7.31
2017-02-21T08:48:54.651Z,7.4
2017-02-21T08:50:04.813Z,7.34
2017-02-21T08:51:14.139Z,7.39
2017-02-21T08:52:23.868Z,7.46
2017-02-21T08:53:33.596Z,7.52
2017-02-21T08:54:43.333Z,7.55
2017-02-21T08:55:53.656Z,7.61
2017-02-21T08:57:02.566Z,7.58
2017-02-21T08:58:12.302Z,7.52
2017-02-21T08:59:22.024Z,7.57
2017-02-21T09:00:30.952Z,7.53
2017-02-21T09:01:40.533Z,7.6
2017-02-21T09:02:49.854Z,7.57
2017-02-21T09:03:58.787Z,7.63
2017-02-21T09:05:08.521Z,7.64
2017-02-21T09:06:18.266Z,7.6
2017-02-21T09:07:28.480Z,7.64
2017-02-21T09:08:37.826Z,7.68
2017-02-21T09:09:47.143Z,7.69
2017-02-21T09:10:56.066Z,7.72
2017-02-21T09:12:05.010Z,7.72
2017-02-21T09:13:14.394Z,7.71
2017-02-21T09:14:24.129Z,7.67
2017-02-21T09:15:33.470Z,7.74
2017-02-21T09:16:42.814Z,7.72
2017-02-21T09:17:52.161Z,7.72
2017-02-21T09:19:01.635Z,7.75
2017-02-21T09:20:10.556Z,7.74
2017-02-21T09:21:19.886Z,7.74
2017-02-21T09:22:30.050Z,7.68
2017-02-21T09:23:39.809Z,7.67
2017-02-21T09:24:49.194Z,7.64
2017-02-21T09:25:58.958Z,7.64
2017-02-21T09:27:07.883Z,7.77
2017-02-21T09:28:16.822Z,7.75
2017-02-21T09:29:26.552Z,7.86
2017-02-21T09:30:37.015Z,7.9
2017-02-21T09:31:46.346Z,7.92
2017-02-21T09:32:56.073Z,7.89
2017-02-21T09:34:05.806Z,7.86
2017-02-21T09:35:14.721Z,7.89
2017-02-21T09:36:24.357Z,7.89
2017-02-21T09:37:33.677Z,7.86
2017-02-21T09:38:42.998Z,7.87
2017-02-21T09:39:52.743Z,8.02
2017-02-21T09:41:02.908Z,7.93
2017-02-21T09:42:12.320Z,8
2017-02-21T09:43:21.662Z,7.92
2017-02-21T09:44:31.807Z,7.95
2017-02-21T09:45:41.137Z,8
2017-02-21T09:46:50.879Z,8.1
2017-02-21T09:47:59.853Z,8.05
2017-02-21T09:49:08.805Z,8.11
2017-02-21T09:50:18.563Z,8.11
2017-02-21T09:51:28.725Z,8.12
2017-02-21T09:52:37.657Z,8.11
2017-02-21T09:53:46.891Z,8.1
2017-02-21T09:54:56.216Z,8.08
2017-02-21T09:56:05.953Z,8.08
2017-02-21T09:57:15.271Z,8.07
2017-02-21T09:58:24.203Z,8.12
2017-02-21T09:59:33.327Z,8.12
2017-02-21T10:00:42.651Z,8.08
2017-02-21T10:01:51.973Z,8.18
2017-02-21T10:03:01.340Z,8.19
2017-02-21T10:04:10.678Z,8.1
2017-02-21T10:05:20.054Z,8.15
2017-02-21T10:06:29.394Z,8.15
2017-02-21T10:07:38.714Z,8.2
2017-02-21T10:08:48.044Z,8.29
2017-02-21T10:09:57.775Z,8.26
2017-02-21T10:11:07.325Z,8.34
2017-02-21T10:12:17.490Z,8.34
2017-02-21T10:13:27.253Z,8.36
2017-02-21T10:14:36.594Z,8.3
2017-02-21T10:15:46.333Z,8.36
2017-02-21T10:16:56.135Z,8.38
2017-02-21T10:18:05.876Z,8.43
2017-02-21T10:19:16.432Z,8.3
2017-02-21T10:20:25.771Z,8.34
2017-02-21T10:21:35.119Z,8.33
2017-02-21T10:22:45.404Z,8.34
2017-02-21T10:23:54.328Z,8.44
2017-02-21T10:25:03.652Z,8.43
2017-02-21T10:26:13.807Z,8.5
2017-02-21T10:27:23.947Z,8.5
2017-02-21T10:28:33.417Z,8.44
2017-02-21T10:29:42.336Z,8.59
2017-02-21T10:30:51.660Z,8.56
2017-02-21T10:32:01.026Z,8.59
2017-02-21T10:33:10.782Z,8.59
2017-02-21T10:34:20.818Z,8.66
2017-02-21T10:35:30.181Z,8.62
2017-02-21T10:36:39.917Z,8.68
2017-02-21T10:37:49.686Z,8.68
2017-02-21T10:38:59.441Z,8.77
2017-02-21T10:40:08.949Z,8.7
2017-02-21T10:41:18.278Z,8.73
2017-02-21T10:42:27.644Z,8.77
2017-02-21T10:43:36.971Z,8.77
2017-02-21T10:44:46.715Z,8.8
2017-02-21T10:45:56.544Z,8.76
2017-02-21T10:47:05.884Z,8.83
2017-02-21T10:48:15.633Z,8.86
2017-02-21T10:49:24.551Z,8.94
2017-02-21T10:50:33.896Z,8.95
2017-02-21T10:51:43.684Z,8.95
2017-02-21T10:52:53.016Z,8.91
2017-02-21T10:54:02.361Z,9.04
2017-02-21T10:55:11.289Z,9.05
2017-02-21T10:56:20.643Z,9.1
2017-02-21T10:57:30.146Z,9.1
2017-02-21T10:58:40.293Z,9.13
2017-02-21T10:59:50.040Z,9.05
2017-02-21T11:00:59.389Z,9.15
2017-02-21T11:02:09.542Z,9.15
2017-02-21T11:03:19.447Z,9.08
2017-02-21T11:04:28.773Z,9.08
2017-02-21T11:05:38.528Z,9.1
2017-02-21T11:06:48.673Z,9.1
2017-02-21T11:07:58.406Z,9.04
2017-02-21T11:09:07.779Z,9.02
2017-02-21T11:10:16.704Z,8.99
2017-02-21T11:11:26.045Z,8.99
2017-02-21T11:12:35.368Z,9.01
2017-02-21T11:13:44.741Z,9.04
2017-02-21T11:14:53.724Z,9.05
2017-02-21T11:16:03.453Z,9.05
2017-02-21T11:17:12.783Z,9.18
2017-02-21T11:18:22.125Z,9.2
2017-02-21T11:19:31.449Z,9.21
2017-02-21T11:20:40.443Z,9.26
2017-02-21T11:21:49.783Z,9.23
2017-02-21T11:22:59.524Z,9.23
2017-02-21T11:24:09.693Z,9.36
2017-02-21T11:25:18.612Z,9.32
2017-02-21T11:26:27.679Z,9.24
2017-02-21T11:27:37.044Z,9.23
2017-02-21T11:28:47.192Z,9.23
2017-02-21T11:29:56.933Z,9.24
2017-02-21T11:31:05.876Z,9.17
2017-02-21T11:32:15.011Z,9.24
2017-02-21T11:33:25.152Z,9.24
2017-02-21T11:34:34.913Z,9.23
2017-02-21T11:35:45.074Z,9.24
2017-02-21T11:36:54.408Z,9.26
2017-02-21T11:38:04.291Z,9.2
2017-02-21T11:39:13.617Z,9.24
2017-02-21T11:40:22.573Z,9.32
2017-02-21T11:41:32.324Z,9.28
2017-02-21T11:42:41.655Z,9.24
2017-02-21T11:43:51.436Z,9.33
2017-02-21T11:45:00.390Z,9.32
2017-02-21T11:46:09.715Z,9.26
2017-02-21T11:47:19.462Z,9.26
2017-02-21T11:48:28.792Z,9.23
2017-02-21T11:49:38.188Z,9.28
2017-02-21T11:50:47.512Z,9.26
2017-02-21T11:51:57.651Z,9.24
2017-02-21T11:53:07.395Z,9.18
2017-02-21T11:54:16.730Z,9.24
2017-02-21T11:55:27.077Z,9.14
2017-02-21T11:56:35.996Z,9.14
2017-02-21T11:57:45.333Z,9.18
2017-02-21T11:58:54.653Z,9.11
2017-02-21T12:00:04.413Z,9.21
2017-02-21T12:01:13.533Z,9.26
2017-02-21T12:02:23.295Z,9.32
2017-02-21T12:03:33.455Z,9.31
2017-02-21T12:04:42.806Z,9.39
2017-02-21T12:05:52.557Z,9.42
2017-02-21T12:07:01.655Z,9.38
2017-02-21T12:08:11.008Z,9.51
2017-02-21T12:09:20.351Z,9.56
2017-02-21T12:10:29.684Z,9.56
2017-02-21T12:11:38.612Z,9.69
2017-02-21T12:12:47.839Z,9.76
2017-02-21T12:13:57.591Z,9.83
2017-02-21T12:15:06.544Z,9.81
2017-02-21T12:16:15.473Z,9.94
2017-02-21T12:17:24.816Z,9.96
2017-02-21T12:18:34.309Z,10.07
2017-02-21T12:19:43.672Z,10.18
2017-02-21T12:20:53.822Z,10.36
2017-02-21T12:22:03.169Z,10.41
2017-02-21T12:23:12.939Z,10.42
2017-02-21T12:24:22.432Z,10.53
2017-02-21T12:25:31.772Z,10.51
2017-02-21T12:26:41.112Z,10.59
2017-02-21T12:27:50.449Z,10.63
2017-02-21T12:29:00.194Z,10.67
2017-02-21T12:30:09.932Z,10.56
2017-02-21T12:31:19.257Z,10.47
2017-02-21T12:32:28.591Z,10.42
2017-02-21T12:33:37.563Z,10.41
2017-02-21T12:34:47.297Z,10.25
2017-02-21T12:35:56.769Z,10.15
2017-02-21T12:37:06.096Z,10.08
2017-02-21T12:38:15.426Z,9.97
2017-02-21T12:39:25.175Z,9.91
2017-02-21T12:40:34.911Z,9.76
2017-02-21T12:41:45.004Z,9.89
2017-02-21T12:42:55.150Z,9.83
2017-02-21T12:44:04.897Z,9.9
2017-02-21T12:45:14.640Z,9.79
2017-02-21T12:46:23.559Z,9.81
2017-02-21T12:47:33.404Z,9.87
2017-02-21T12:48:43.149Z,9.81
2017-02-21T12:49:52.518Z,9.78
2017-02-21T12:51:02.279Z,9.69
2017-02-21T12:52:12.016Z,9.64
2017-02-21T12:53:21.502Z,9.65
2017-02-21T12:54:31.238Z,9.57
2017-02-21T12:55:40.583Z,9.54
2017-02-21T12:56:50.625Z,9.47
2017-02-21T12:57:59.994Z,9.51
2017-02-21T12:59:10.320Z,9.61
2017-02-21T13:00:19.707Z,9.68
2017-02-21T13:01:28.643Z,9.76
2017-02-21T13:02:37.989Z,9.58
2017-02-21T13:03:47.729Z,9.69
2017-02-21T13:04:57.104Z,9.69
2017-02-21T13:06:06.436Z,9.71
2017-02-21T13:07:15.780Z,9.74
2017-02-21T13:08:24.700Z,9.93
2017-02-21T13:09:33.634Z,9.93
2017-02-21T13:10:43.432Z,9.93
2017-02-21T13:11:52.770Z,9.97
2017-02-21T13:13:02.102Z,9.96
2017-02-21T13:14:11.860Z,10.05
2017-02-21T13:15:21.640Z,10.01
2017-02-21T13:16:30.872Z,10.11
2017-02-21T13:17:39.802Z,10.17
2017-02-21T13:18:49.537Z,10.09
2017-02-21T13:19:59.264Z,10.25
2017-02-21T13:21:09.028Z,10.23
2017-02-21T13:22:18.066Z,10.29
2017-02-21T13:23:27.009Z,10.25
2017-02-21T13:24:36.351Z,10.25
2017-02-21T13:25:45.692Z,10.27
2017-02-21T13:26:54.604Z,10.25
2017-02-21T13:28:03.770Z,10.25
2017-02-21T13:29:12.702Z,10.22
2017-02-21T13:30:22.028Z,10.18
2017-02-21T13:31:31.371Z,10.23
2017-02-21T13:32:41.118Z,10.14
2017-02-21T13:33:50.603Z,10.14
2017-02-21T13:34:59.557Z,10.11
2017-02-21T13:36:08.492Z,10.08
2017-02-21T13:37:18.267Z,10.11
2017-02-21T13:38:28.116Z,10.09
2017-02-21T13:39:37.247Z,10.08
2017-02-21T13:40:46.190Z,10.08
2017-02-21T13:41:57.180Z,10.07
2017-02-21T13:43:06.514Z,10.07
2017-02-21T13:44:16.658Z,10.17
2017-02-21T13:45:25.642Z,10.15
2017-02-21T13:46:34.566Z,10.2
2017-02-21T13:47:43.894Z,10.33
2017-02-21T13:48:53.246Z,10.34
2017-02-21T13:50:03.400Z,10.41
2017-02-21T13:51:12.780Z,10.41
2017-02-21T13:52:21.730Z,10.45
2017-02-21T13:53:31.498Z,10.59
2017-02-21T13:54:40.828Z,10.47
2017-02-21T13:55:49.764Z,10.45
2017-02-21T13:56:59.280Z,10.44
2017-02-21T13:58:08.206Z,10.44
2017-02-21T13:59:17.942Z,10.38
2017-02-21T14:00:27.697Z,10.51
2017-02-21T14:01:37.858Z,10.41
2017-02-21T14:02:47.117Z,10.55
2017-02-21T14:03:56.743Z,10.6
2017-02-21T14:05:06.497Z,10.63
2017-02-21T14:06:16.640Z,10.71
2017-02-21T14:07:25.548Z,10.71
2017-02-21T14:08:34.971Z,10.71
2017-02-21T14:09:43.911Z,10.79
2017-02-21T14:10:52.829Z,10.79
2017-02-21T14:12:01.744Z,10.84
2017-02-21T14:13:10.716Z,10.91
2017-02-21T14:14:19.716Z,10.94
2017-02-21T14:15:28.633Z,10.88
2017-02-21T14:16:37.972Z,10.88
2017-02-21T14:17:47.322Z,11.03
2017-02-21T14:18:56.647Z,11.07
2017-02-21T14:20:06.125Z,11.1
2017-02-21T14:21:15.037Z,11.25
2017-02-21T14:22:24.779Z,11.18
2017-02-21T14:23:34.942Z,11.14
2017-02-21T14:24:45.110Z,11.21
2017-02-21T14:25:55.427Z,11.19
2017-02-21T14:27:04.760Z,11.27
2017-02-21T14:28:14.088Z,11.24
2017-02-21T14:29:24.240Z,11.27
2017-02-21T14:30:33.990Z,11.14
2017-02-21T14:31:43.785Z,11.09
2017-02-21T14:32:53.920Z,11.14
2017-02-21T14:34:03.249Z,11.07
2017-02-21T14:35:12.191Z,11.06
2017-02-21T14:36:21.546Z,11.06
2017-02-21T14:37:31.291Z,11.02
2017-02-21T14:38:40.640Z,11.03
2017-02-21T14:39:49.998Z,10.99
2017-02-21T14:41:00.155Z,10.96
2017-02-21T14:42:09.888Z,10.97
2017-02-21T14:43:19.210Z,11
2017-02-21T14:44:28.562Z,11.02
2017-02-21T14:45:37.498Z,11.02
2017-02-21T14:46:47.258Z,11.03
2017-02-21T14:47:57.042Z,11.03
2017-02-21T14:49:06.995Z,11
2017-02-21T14:50:16.744Z,10.99
2017-02-21T14:51:25.667Z,11
2017-02-21T14:52:34.995Z,10.97
2017-02-21T14:53:45.582Z,11.04
2017-02-21T14:54:55.154Z,11
2017-02-21T14:56:04.953Z,10.94
2017-02-21T14:57:14.282Z,10.96
2017-02-21T14:58:23.616Z,10.91
2017-02-21T14:59:32.972Z,10.92
2017-02-21T15:00:43.105Z,10.89
2017-02-21T15:01:52.840Z,10.82
2017-02-21T15:03:02.200Z,10.85
2017-02-21T15:04:11.142Z,10.74
2017-02-21T15:05:20.872Z,10.63
2017-02-21T15:06:30.352Z,10.6
2017-02-21T15:07:40.110Z,10.59
2017-02-21T15:08:49.442Z,10.55
2017-02-21T15:09:58.786Z,10.56
2017-02-21T15:11:08.553Z,10.47